Clark Todd — WDH6420 — position and weather

sailwx.info

Track history (hours):
 
Tides and Currents Weather Stations Pressure Air Temp Water Temp Dewpoint Dewpoint Depression Visibility Wind Speed Wind Dir Waves Ship Positions

Clark Todd

Owner: The Barge Investment Group Ten, LLC, Harahan, LA. More information available from US FCC via Universal Licensing System and Coast Guard Vessel Documentation Center.

Last reported at 2017-Oct-14 15:07 UTC. Time now 2017-Oct-18 01:59 UTC.
Position N 32°45' W 091°09'.

Length 25 m; draft 2.7 m.

Type: Towing. MMSI: 367637760.

Date/timePositionNaut miles runAvg speedWind from/ knotsBaromVisibWave heightAir tempDewpointWater temp
2017-Oct-14 15:07N 32°45' W 091°09'6 1.0
2017-Oct-14 09:45N 32°40' W 091°08'2 1.6
2017-Oct-14 08:28N 32°38' W 091°09'0 0.0
2017-Oct-14 07:58N 32°38' W 091°09'1 1.6
2017-Oct-14 07:28N 32°37' W 091°09'2 5.2
2017-Oct-14 07:00N 32°35' W 091°08'2 4.8
2017-Oct-14 06:30N 32°33' W 091°06'2 5.0
2017-Oct-14 06:00N 32°31' W 091°06'3 5.5
2017-Oct-14 05:30N 32°28' W 091°06'3 5.7
2017-Oct-14 05:00N 32°26' W 091°04'2 4.5
2017-Oct-14 04:30N 32°25' W 091°01'0 0.0
2017-Oct-14 04:00N 32°25' W 091°01'1 1.3
2017-Oct-14 03:30N 32°25' W 091°00'2 4.1
2017-Oct-14 03:00N 32°23' W 090°60'2 4.7
2017-Oct-14 02:30N 32°21' W 090°59'3 5.3
2017-Oct-14 02:00N 32°21' W 090°56'2 4.0
2017-Oct-14 01:30N 32°20' W 090°54'3 5.1
2017-Oct-14 01:00N 32°18' W 090°55'1 1.6
2017-Oct-14 00:30N 32°17' W 090°56'1 1.1
2017-Oct-14 00:00N 32°17' W 090°57'2 3.8
2017-Oct-13 23:30N 32°16' W 090°58'2 4.2
2017-Oct-13 23:00N 32°14' W 090°59'1 2.4
2017-Oct-13 22:30N 32°12' W 090°59'1 2.0
2017-Oct-13 22:00N 32°12' W 090°60'2 4.9
2017-Oct-13 21:30N 32°09' W 091°00'2 4.6
2017-Oct-13 21:00N 32°07' W 091°02'2 5.0
2017-Oct-13 20:30N 32°08' W 091°05'2 3.7
2017-Oct-13 20:00N 32°07' W 091°06'4 2.8
2017-Oct-13 18:28N 32°03' W 091°03'2 4.4
2017-Oct-13 18:00N 32°01' W 091°04'3 5.4
2017-Oct-13 17:28N 31°59' W 091°07'3 5.1
2017-Oct-13 16:49N 31°59' W 091°10'2 5.2
2017-Oct-13 16:28N 31°57' W 091°11'2 4.8
2017-Oct-13 16:00N 31°55' W 091°12'2 4.6
2017-Oct-13 15:30N 31°53' W 091°13'3 5.2
2017-Oct-13 14:56N 31°51' W 091°16'2 4.1
2017-Oct-13 14:30N 31°51' W 091°18'2 4.1
2017-Oct-13 14:00N 31°51' W 091°21'5 1.4
2017-Oct-13 10:19N 31°46' W 091°22'2 4.6
2017-Oct-13 09:54N 31°44' W 091°23'2 4.8
2017-Oct-13 09:27N 31°42' W 091°24'10 5.5
2017-Oct-13 07:41N 31°33' W 091°26'2 5.9
2017-Oct-13 07:25N 31°32' W 091°28'2 4.8
2017-Oct-13 07:00N 31°31' W 091°30'7 4.4
2017-Oct-13 05:23N 31°24' W 091°29'  
2017-Oct-11 00:00N 29°48' W 092°16'3 5.2
2017-Oct-10 23:30N 29°50' W 092°18'3 5.3
2017-Oct-10 23:00N 29°51' W 092°21'3 4.8
2017-Oct-10 22:21N 29°53' W 092°24'34 4.9
2017-Oct-10 15:28N 29°56' W 093°03'2 4.8
2017-Oct-10 15:00N 29°56' W 093°05'5 4.6
2017-Oct-10 14:00N 29°57' W 093°11'3 5.1
2017-Oct-10 13:30N 29°59' W 093°12'2 4.6
2017-Oct-10 13:00N 30°01' W 093°14'2 4.6
2017-Oct-10 12:30N 30°03' W 093°16'2 4.2
2017-Oct-10 12:00N 30°05' W 093°17'1 2.5
2017-Oct-10 11:30N 30°05' W 093°18'1 2.2
2017-Oct-10 11:00N 30°06' W 093°19'0 1.0
2017-Oct-10 10:30N 30°06' W 093°19'0 0.0
2017-Oct-10 10:00N 30°06' W 093°19'0 0.0
2017-Oct-10 09:30N 30°06' W 093°19'0 0.0
2017-Oct-10 09:00N 30°06' W 093°19'0 0.0
2017-Oct-10 08:30N 30°06' W 093°19'0 0.0
2017-Oct-10 08:00N 30°06' W 093°19'0 0.0
2017-Oct-10 07:30N 30°06' W 093°19'0 0.0
2017-Oct-10 07:00N 30°06' W 093°19'0 0.0
2017-Oct-10 06:30N 30°06' W 093°19'0 0.0
2017-Oct-10 06:00N 30°06' W 093°19'0 0.0
2017-Oct-10 05:30N 30°06' W 093°19'0 0.0
2017-Oct-10 05:00N 30°06' W 093°19'0 0.0
2017-Oct-10 04:30N 30°06' W 093°19'0 0.0
2017-Oct-10 04:00N 30°06' W 093°19'0 0.0
2017-Oct-10 03:30N 30°06' W 093°19'0 0.0
2017-Oct-10 03:00N 30°06' W 093°19'0 0.0
2017-Oct-10 02:30N 30°06' W 093°19'0 0.0
2017-Oct-10 02:00N 30°06' W 093°19'0 0.0
2017-Oct-10 01:30N 30°06' W 093°19'0 0.0
2017-Oct-10 01:00N 30°06' W 093°19'0 0.0
2017-Oct-10 00:30N 30°06' W 093°19'0 0.0
2017-Oct-10 00:00N 30°06' W 093°19'0 0.0
2017-Oct-09 23:30N 30°06' W 093°19'0 0.0
2017-Oct-09 23:00N 30°06' W 093°19'0 0.1
2017-Oct-09 22:30N 30°06' W 093°19'0 0.8
2017-Oct-09 22:00N 30°06' W 093°20'2 4.3
2017-Oct-09 21:30N 30°08' W 093°20'0 0.2
2017-Oct-09 21:00N 30°08' W 093°19'0 0.4
2017-Oct-09 20:30N 30°08' W 093°19'0 0.0
2017-Oct-09 20:00N 30°08' W 093°19'0 0.1
2017-Oct-09 19:30N 30°08' W 093°19'0 0.0
2017-Oct-09 19:00N 30°08' W 093°19'0 0.0
2017-Oct-09 18:30N 30°08' W 093°19'0 0.0
2017-Oct-09 18:00N 30°08' W 093°19'0 0.0
2017-Oct-09 17:30N 30°08' W 093°19'0 0.0
2017-Oct-09 17:00N 30°08' W 093°19'0 0.0
2017-Oct-09 16:30N 30°08' W 093°19'0 0.0
2017-Oct-09 16:01N 30°08' W 093°19'0 0.0
2017-Oct-09 15:30N 30°08' W 093°19'0 0.0
2017-Oct-09 15:00N 30°08' W 093°19'0 0.0
2017-Oct-09 14:30N 30°08' W 093°19'0 0.0
2017-Oct-09 14:01N 30°08' W 093°19'0 0.0
2017-Oct-09 13:30N 30°08' W 093°19'0 0.0
2017-Oct-09 13:00N 30°08' W 093°19'0 0.0
2017-Oct-09 12:30N 30°08' W 093°19'0 0.0
2017-Oct-09 12:00N 30°08' W 093°19'0 0.0
2017-Oct-09 11:30N 30°08' W 093°19'0 0.0
2017-Oct-09 11:00N 30°08' W 093°19'0 0.0
2017-Oct-09 10:30N 30°08' W 093°19'0 0.0
2017-Oct-09 10:00N 30°08' W 093°19'0 0.0
2017-Oct-09 09:30N 30°08' W 093°19'0 0.0
2017-Oct-09 09:00N 30°08' W 093°19'0 0.0
2017-Oct-09 08:30N 30°08' W 093°19'0 0.0
2017-Oct-09 08:00N 30°08' W 093°19'0 0.0
2017-Oct-09 07:30N 30°08' W 093°19'0 0.0
2017-Oct-09 07:00N 30°08' W 093°19'0 0.0
2017-Oct-09 06:30N 30°08' W 093°19'0 0.0
2017-Oct-09 06:00N 30°08' W 093°19'0 0.0
2017-Oct-09 05:30N 30°08' W 093°19'0 0.0
2017-Oct-09 05:00N 30°08' W 093°19'0 0.0
2017-Oct-09 04:30N 30°08' W 093°19'0 0.0
2017-Oct-09 04:00N 30°08' W 093°19'0 0.0
2017-Oct-09 03:30N 30°08' W 093°19'0 0.0
2017-Oct-09 03:00N 30°08' W 093°19'0 0.0
2017-Oct-09 02:30N 30°08' W 093°19'0 0.0
2017-Oct-09 02:01N 30°08' W 093°19'0 0.0
2017-Oct-09 01:30N 30°08' W 093°19'0 0.0
2017-Oct-09 01:00N 30°08' W 093°19'0 0.0
2017-Oct-09 00:30N 30°08' W 093°19'0 0.0
2017-Oct-09 00:00N 30°08' W 093°19'1 2.9
2017-Oct-08 23:30N 30°07' W 093°20'1 2.8
2017-Oct-08 23:00N 30°06' W 093°19'2 3.7
2017-Oct-08 22:30N 30°04' W 093°20'2 3.7
2017-Oct-08 22:01N 30°04' W 093°22'0 0.1
2017-Oct-08 21:30N 30°04' W 093°22'0 0.0
2017-Oct-08 21:00N 30°04' W 093°22'0 0.0
2017-Oct-08 20:30N 30°04' W 093°22'0 0.0
2017-Oct-08 20:00N 30°04' W 093°22'0 0.0
2017-Oct-08 19:30N 30°04' W 093°22'0 0.0
2017-Oct-08 19:00N 30°04' W 093°22'0 0.0
2017-Oct-08 18:30N 30°04' W 093°22'0 0.0
2017-Oct-08 18:00N 30°04' W 093°22'0 0.0
2017-Oct-08 17:30N 30°04' W 093°22'0 0.0
2017-Oct-08 17:00N 30°04' W 093°22'0 0.0
2017-Oct-08 16:30N 30°04' W 093°22'0 0.0
2017-Oct-08 16:00N 30°04' W 093°22'0 0.1
2017-Oct-08 15:30N 30°04' W 093°22'0 0.0
2017-Oct-08 15:00N 30°04' W 093°22'0 0.0
2017-Oct-08 14:30N 30°04' W 093°22'0 0.0
2017-Oct-08 14:00N 30°04' W 093°22'0 0.0
2017-Oct-08 13:30N 30°04' W 093°22'0 0.0
2017-Oct-08 13:00N 30°04' W 093°22'0 0.0
2017-Oct-08 12:30N 30°04' W 093°22'0 0.0
2017-Oct-08 12:00N 30°04' W 093°22'0 0.0
2017-Oct-08 11:30N 30°04' W 093°22'0 0.0
2017-Oct-08 11:00N 30°04' W 093°22'0 0.0
2017-Oct-08 10:30N 30°04' W 093°22'0 0.0
2017-Oct-08 10:00N 30°04' W 093°22'0 0.0
2017-Oct-08 09:30N 30°04' W 093°22'0 0.0
2017-Oct-08 09:00N 30°04' W 093°22'0 0.0
2017-Oct-08 08:30N 30°04' W 093°22'0 0.0
2017-Oct-08 08:00N 30°04' W 093°22'0 0.0
2017-Oct-08 07:30N 30°04' W 093°22'0 0.0
2017-Oct-08 07:00N 30°04' W 093°22'0 0.0
2017-Oct-08 06:30N 30°04' W 093°22'0 0.0
2017-Oct-08 06:00N 30°04' W 093°22'0 0.0
2017-Oct-08 05:30N 30°04' W 093°22'0 0.0
2017-Oct-08 05:00N 30°04' W 093°22'0 0.0
2017-Oct-08 04:30N 30°04' W 093°22'0 0.0
2017-Oct-08 04:00N 30°04' W 093°22'0 0.0
2017-Oct-08 03:30N 30°04' W 093°22'0 0.0
2017-Oct-08 03:00N 30°04' W 093°22'0 0.0
2017-Oct-08 02:30N 30°04' W 093°22'0 0.0
2017-Oct-08 02:00N 30°04' W 093°22'0 0.0
2017-Oct-08 01:30N 30°04' W 093°22'0 0.0
2017-Oct-08 01:00N 30°04' W 093°22'0 0.0
2017-Oct-08 00:30N 30°04' W 093°22'0 0.0
2017-Oct-08 00:00N 30°04' W 093°22'0 0.0
2017-Oct-07 23:30N 30°04' W 093°22'0 0.0
2017-Oct-07 23:00N 30°04' W 093°22'0 0.0
2017-Oct-07 22:30N 30°04' W 093°22'0 0.0
2017-Oct-07 22:00N 30°04' W 093°22'0 0.0
2017-Oct-07 21:30N 30°04' W 093°22'0 0.0
2017-Oct-07 21:00N 30°04' W 093°22'0 0.0
2017-Oct-07 20:30N 30°04' W 093°22'0 0.0
2017-Oct-07 20:00N 30°04' W 093°22'0 0.0
2017-Oct-07 19:30N 30°04' W 093°22'0 0.0
2017-Oct-07 19:00N 30°04' W 093°22'0 0.0
2017-Oct-07 18:30N 30°04' W 093°22'0 0.0
2017-Oct-07 18:00N 30°04' W 093°22'0 0.0
2017-Oct-07 17:30N 30°04' W 093°22'0 0.0
2017-Oct-07 17:00N 30°04' W 093°22'0 0.0
2017-Oct-07 16:30N 30°04' W 093°22'0 0.0
2017-Oct-07 16:00N 30°04' W 093°22'0 0.0
2017-Oct-07 15:30N 30°04' W 093°22'0 0.0
2017-Oct-07 15:00N 30°04' W 093°22'0 0.0
2017-Oct-07 14:30N 30°04' W 093°22'0 0.0
2017-Oct-07 14:00N 30°04' W 093°22'0 0.0
2017-Oct-07 13:30N 30°04' W 093°22'0 0.0
2017-Oct-07 13:00N 30°04' W 093°22'1 1.8
2017-Oct-07 12:30N 30°04' W 093°21'1 1.9
2017-Oct-07 12:00N 30°04' W 093°22'0 0.0
2017-Oct-07 11:30N 30°04' W 093°22'0 0.0
2017-Oct-07 11:00N 30°04' W 093°22'0 0.0
2017-Oct-07 10:30N 30°04' W 093°22'0 0.0
2017-Oct-07 10:00N 30°04' W 093°22'0 0.0
2017-Oct-07 09:30N 30°04' W 093°22'0 0.0
2017-Oct-07 09:00N 30°04' W 093°22'0 0.0
2017-Oct-07 08:30N 30°04' W 093°22'0 0.0
2017-Oct-07 08:00N 30°04' W 093°22'0 0.0
2017-Oct-07 07:31N 30°04' W 093°22'0 0.0
2017-Oct-07 07:00N 30°04' W 093°22'0 0.0
2017-Oct-07 06:30N 30°04' W 093°22'0 0.0
2017-Oct-07 06:00N 30°04' W 093°22'0 0.0
2017-Oct-07 05:30N 30°04' W 093°22'0 0.0
2017-Oct-07 05:00N 30°04' W 093°22'0 0.0
2017-Oct-07 04:30N 30°04' W 093°22'0 0.0
2017-Oct-07 04:00N 30°04' W 093°22'0 0.0
2017-Oct-07 03:30N 30°04' W 093°22'0 0.0
2017-Oct-07 03:00N 30°04' W 093°22'0 0.0
2017-Oct-07 02:30N 30°04' W 093°22'0 0.0
2017-Oct-07 02:00N 30°04' W 093°22'0 0.0
2017-Oct-07 01:30N 30°04' W 093°22'0 0.0
2017-Oct-07 01:00N 30°04' W 093°22'0 0.0
2017-Oct-07 00:30N 30°04' W 093°22'0 0.0
2017-Oct-07 00:00N 30°04' W 093°22'0 0.0
2017-Oct-06 23:30N 30°04' W 093°22'0 0.0
2017-Oct-06 23:00N 30°04' W 093°22'0 0.0
2017-Oct-06 22:30N 30°04' W 093°22'0 0.0
2017-Oct-06 22:00N 30°04' W 093°22'0 0.0
2017-Oct-06 21:30N 30°04' W 093°22'0 0.0
2017-Oct-06 21:00N 30°04' W 093°22'0 0.0
2017-Oct-06 20:30N 30°04' W 093°22'0 0.0
2017-Oct-06 20:00N 30°04' W 093°22'0 0.0
2017-Oct-06 19:30N 30°04' W 093°22'0 0.0
2017-Oct-06 19:00N 30°04' W 093°22'0 0.0
2017-Oct-06 18:30N 30°04' W 093°22'0 0.0
2017-Oct-06 18:00N 30°04' W 093°22'0 0.0
2017-Oct-06 17:30N 30°04' W 093°22'2 3.9
2017-Oct-06 17:00N 30°04' W 093°25'2 4.6
2017-Oct-06 16:30N 30°04' W 093°27'3 6.7
2017-Oct-06 16:00N 30°04' W 093°31'3 6.8
2017-Oct-06 15:30N 30°04' W 093°35'3 6.9
2017-Oct-06 15:00N 30°03' W 093°39'6 5.0
2017-Oct-06 13:54N 30°01' W 093°45'4 7.6
2017-Oct-06 13:26N 29°59' W 093°48'3 6.9
2017-Oct-06 12:58N 29°58' W 093°51'4 8.1
2017-Oct-06 12:30N 29°54' W 093°54'4 8.2
2017-Oct-06 12:00N 29°51' W 093°57'3 6.1
2017-Oct-06 11:30N 29°49' W 093°59'50 4.6
2017-Oct-06 00:34N 29°31' W 094°53'1 7.6
2017-Oct-06 00:24N 29°32' W 094°54'3 7.8
2017-Oct-06 00:00N 29°34' W 094°56'4 7.8
2017-Oct-05 23:30N 29°38' W 094°58'4 8.1
2017-Oct-05 23:00N 29°42' W 094°60'3 6.9
2017-Oct-05 22:30N 29°44' W 095°03'3 0.3
2017-Oct-05 12:14N 29°45' W 095°06'0 0.0
2017-Oct-05 12:00N 29°45' W 095°06'0 0.0
2017-Oct-05 11:28N 29°45' W 095°06'0 0.0
2017-Oct-05 09:08N 29°45' W 095°06'0 0.0
2017-Oct-05 08:51N 29°45' W 095°06'0 0.0
2017-Oct-05 08:06N 29°45' W 095°06'0 0.0
2017-Oct-05 08:00N 29°45' W 095°06'0 0.0
2017-Oct-05 07:22N 29°45' W 095°06'0 0.0
2017-Oct-05 07:00N 29°45' W 095°06'0 0.0
2017-Oct-05 06:30N 29°45' W 095°06'0 0.0
2017-Oct-05 05:58N 29°45' W 095°06'0 0.0
2017-Oct-05 05:30N 29°45' W 095°06'0 0.0
2017-Oct-05 05:00N 29°45' W 095°06'0 0.0
2017-Oct-05 04:29N 29°45' W 095°06'0 0.0
2017-Oct-05 03:58N 29°45' W 095°06'0 0.0
2017-Oct-05 03:30N 29°45' W 095°06'0 0.0
2017-Oct-05 03:00N 29°45' W 095°06'0 0.0
2017-Oct-05 02:30N 29°45' W 095°06'0 0.0
2017-Oct-05 01:59N 29°45' W 095°06'0 0.0
2017-Oct-05 01:30N 29°45' W 095°06'0 0.0
2017-Oct-05 00:54N 29°45' W 095°06'  
Track history (hours):
 
Tides and Currents Weather Stations Pressure Air Temp Water Temp Dewpoint Dewpoint Depression Visibility Wind Speed Wind Dir Waves Ship Positions

Clark Todd

Owner: The Barge Investment Group Ten, LLC, Harahan, LA. More information available from US FCC via Universal Licensing System and Coast Guard Vessel Documentation Center.

Last reported at 2017-Oct-14 15:07 UTC. Time now 2017-Oct-18 01:59 UTC.
Position N 32°45' W 091°09'.

Length 25 m; draft 2.7 m.

Type: Towing. MMSI: 367637760.

Date/timePositionNaut miles runAvg speedWind from/ knotsBaromVisibWave heightAir tempDewpointWater temp
2017-Oct-14 15:07N 32°45' W 091°09'6 1.0
2017-Oct-14 09:45N 32°40' W 091°08'2 1.6
2017-Oct-14 08:28N 32°38' W 091°09'0 0.0
2017-Oct-14 07:58N 32°38' W 091°09'1 1.6
2017-Oct-14 07:28N 32°37' W 091°09'2 5.2
2017-Oct-14 07:00N 32°35' W 091°08'2 4.8
2017-Oct-14 06:30N 32°33' W 091°06'2 5.0
2017-Oct-14 06:00N 32°31' W 091°06'3 5.5
2017-Oct-14 05:30N 32°28' W 091°06'3 5.7
2017-Oct-14 05:00N 32°26' W 091°04'2 4.5
2017-Oct-14 04:30N 32°25' W 091°01'0 0.0
2017-Oct-14 04:00N 32°25' W 091°01'1 1.3
2017-Oct-14 03:30N 32°25' W 091°00'2 4.1
2017-Oct-14 03:00N 32°23' W 090°60'2 4.7
2017-Oct-14 02:30N 32°21' W 090°59'3 5.3
2017-Oct-14 02:00N 32°21' W 090°56'2 4.0
2017-Oct-14 01:30N 32°20' W 090°54'3 5.1
2017-Oct-14 01:00N 32°18' W 090°55'1 1.6
2017-Oct-14 00:30N 32°17' W 090°56'1 1.1
2017-Oct-14 00:00N 32°17' W 090°57'2 3.8
2017-Oct-13 23:30N 32°16' W 090°58'2 4.2
2017-Oct-13 23:00N 32°14' W 090°59'1 2.4
2017-Oct-13 22:30N 32°12' W 090°59'1 2.0
2017-Oct-13 22:00N 32°12' W 090°60'2 4.9
2017-Oct-13 21:30N 32°09' W 091°00'2 4.6
2017-Oct-13 21:00N 32°07' W 091°02'2 5.0
2017-Oct-13 20:30N 32°08' W 091°05'2 3.7
2017-Oct-13 20:00N 32°07' W 091°06'4 2.8
2017-Oct-13 18:28N 32°03' W 091°03'2 4.4
2017-Oct-13 18:00N 32°01' W 091°04'3 5.4
2017-Oct-13 17:28N 31°59' W 091°07'3 5.1
2017-Oct-13 16:49N 31°59' W 091°10'2 5.2
2017-Oct-13 16:28N 31°57' W 091°11'2 4.8
2017-Oct-13 16:00N 31°55' W 091°12'2 4.6
2017-Oct-13 15:30N 31°53' W 091°13'3 5.2
2017-Oct-13 14:56N 31°51' W 091°16'2 4.1
2017-Oct-13 14:30N 31°51' W 091°18'2 4.1
2017-Oct-13 14:00N 31°51' W 091°21'5 1.4
2017-Oct-13 10:19N 31°46' W 091°22'2 4.6
2017-Oct-13 09:54N 31°44' W 091°23'2 4.8
2017-Oct-13 09:27N 31°42' W 091°24'10 5.5
2017-Oct-13 07:41N 31°33' W 091°26'2 5.9
2017-Oct-13 07:25N 31°32' W 091°28'2 4.8
2017-Oct-13 07:00N 31°31' W 091°30'7 4.4
2017-Oct-13 05:23N 31°24' W 091°29'  
2017-Oct-11 00:00N 29°48' W 092°16'3 5.2
2017-Oct-10 23:30N 29°50' W 092°18'3 5.3
2017-Oct-10 23:00N 29°51' W 092°21'3 4.8
2017-Oct-10 22:21N 29°53' W 092°24'34 4.9
2017-Oct-10 15:28N 29°56' W 093°03'2 4.8
2017-Oct-10 15:00N 29°56' W 093°05'5 4.6
2017-Oct-10 14:00N 29°57' W 093°11'3 5.1
2017-Oct-10 13:30N 29°59' W 093°12'2 4.6
2017-Oct-10 13:00N 30°01' W 093°14'2 4.6
2017-Oct-10 12:30N 30°03' W 093°16'2 4.2
2017-Oct-10 12:00N 30°05' W 093°17'1 2.5
2017-Oct-10 11:30N 30°05' W 093°18'1 2.2
2017-Oct-10 11:00N 30°06' W 093°19'0 1.0
2017-Oct-10 10:30N 30°06' W 093°19'0 0.0
2017-Oct-10 10:00N 30°06' W 093°19'0 0.0
2017-Oct-10 09:30N 30°06' W 093°19'0 0.0
2017-Oct-10 09:00N 30°06' W 093°19'0 0.0
2017-Oct-10 08:30N 30°06' W 093°19'0 0.0
2017-Oct-10 08:00N 30°06' W 093°19'0 0.0
2017-Oct-10 07:30N 30°06' W 093°19'0 0.0
2017-Oct-10 07:00N 30°06' W 093°19'0 0.0
2017-Oct-10 06:30N 30°06' W 093°19'0 0.0
2017-Oct-10 06:00N 30°06' W 093°19'0 0.0
2017-Oct-10 05:30N 30°06' W 093°19'0 0.0
2017-Oct-10 05:00N 30°06' W 093°19'0 0.0
2017-Oct-10 04:30N 30°06' W 093°19'0 0.0
2017-Oct-10 04:00N 30°06' W 093°19'0 0.0
2017-Oct-10 03:30N 30°06' W 093°19'0 0.0
2017-Oct-10 03:00N 30°06' W 093°19'0 0.0
2017-Oct-10 02:30N 30°06' W 093°19'0 0.0
2017-Oct-10 02:00N 30°06' W 093°19'0 0.0
2017-Oct-10 01:30N 30°06' W 093°19'0 0.0
2017-Oct-10 01:00N 30°06' W 093°19'0 0.0
2017-Oct-10 00:30N 30°06' W 093°19'0 0.0
2017-Oct-10 00:00N 30°06' W 093°19'0 0.0
2017-Oct-09 23:30N 30°06' W 093°19'0 0.0
2017-Oct-09 23:00N 30°06' W 093°19'0 0.1
2017-Oct-09 22:30N 30°06' W 093°19'0 0.8
2017-Oct-09 22:00N 30°06' W 093°20'2 4.3
2017-Oct-09 21:30N 30°08' W 093°20'0 0.2
2017-Oct-09 21:00N 30°08' W 093°19'0 0.4
2017-Oct-09 20:30N 30°08' W 093°19'0 0.0
2017-Oct-09 20:00N 30°08' W 093°19'0 0.1
2017-Oct-09 19:30N 30°08' W 093°19'0 0.0
2017-Oct-09 19:00N 30°08' W 093°19'0 0.0
2017-Oct-09 18:30N 30°08' W 093°19'0 0.0
2017-Oct-09 18:00N 30°08' W 093°19'0 0.0
2017-Oct-09 17:30N 30°08' W 093°19'0 0.0
2017-Oct-09 17:00N 30°08' W 093°19'0 0.0
2017-Oct-09 16:30N 30°08' W 093°19'0 0.0
2017-Oct-09 16:01N 30°08' W 093°19'0 0.0
2017-Oct-09 15:30N 30°08' W 093°19'0 0.0
2017-Oct-09 15:00N 30°08' W 093°19'0 0.0
2017-Oct-09 14:30N 30°08' W 093°19'0 0.0
2017-Oct-09 14:01N 30°08' W 093°19'0 0.0
2017-Oct-09 13:30N 30°08' W 093°19'0 0.0
2017-Oct-09 13:00N 30°08' W 093°19'0 0.0
2017-Oct-09 12:30N 30°08' W 093°19'0 0.0
2017-Oct-09 12:00N 30°08' W 093°19'0 0.0
2017-Oct-09 11:30N 30°08' W 093°19'0 0.0
2017-Oct-09 11:00N 30°08' W 093°19'0 0.0
2017-Oct-09 10:30N 30°08' W 093°19'0 0.0
2017-Oct-09 10:00N 30°08' W 093°19'0 0.0
2017-Oct-09 09:30N 30°08' W 093°19'0 0.0
2017-Oct-09 09:00N 30°08' W 093°19'0 0.0
2017-Oct-09 08:30N 30°08' W 093°19'0 0.0
2017-Oct-09 08:00N 30°08' W 093°19'0 0.0
2017-Oct-09 07:30N 30°08' W 093°19'0 0.0
2017-Oct-09 07:00N 30°08' W 093°19'0 0.0
2017-Oct-09 06:30N 30°08' W 093°19'0 0.0
2017-Oct-09 06:00N 30°08' W 093°19'0 0.0
2017-Oct-09 05:30N 30°08' W 093°19'0 0.0
2017-Oct-09 05:00N 30°08' W 093°19'0 0.0
2017-Oct-09 04:30N 30°08' W 093°19'0 0.0
2017-Oct-09 04:00N 30°08' W 093°19'0 0.0
2017-Oct-09 03:30N 30°08' W 093°19'0 0.0
2017-Oct-09 03:00N 30°08' W 093°19'0 0.0
2017-Oct-09 02:30N 30°08' W 093°19'0 0.0
2017-Oct-09 02:01N 30°08' W 093°19'0 0.0
2017-Oct-09 01:30N 30°08' W 093°19'0 0.0
2017-Oct-09 01:00N 30°08' W 093°19'0 0.0
2017-Oct-09 00:30N 30°08' W 093°19'0 0.0
2017-Oct-09 00:00N 30°08' W 093°19'1 2.9
2017-Oct-08 23:30N 30°07' W 093°20'1 2.8
2017-Oct-08 23:00N 30°06' W 093°19'2 3.7
2017-Oct-08 22:30N 30°04' W 093°20'2 3.7
2017-Oct-08 22:01N 30°04' W 093°22'0 0.1
2017-Oct-08 21:30N 30°04' W 093°22'0 0.0
2017-Oct-08 21:00N 30°04' W 093°22'0 0.0
2017-Oct-08 20:30N 30°04' W 093°22'0 0.0
2017-Oct-08 20:00N 30°04' W 093°22'0 0.0
2017-Oct-08 19:30N 30°04' W 093°22'0 0.0
2017-Oct-08 19:00N 30°04' W 093°22'0 0.0
2017-Oct-08 18:30N 30°04' W 093°22'0 0.0
2017-Oct-08 18:00N 30°04' W 093°22'0 0.0
2017-Oct-08 17:30N 30°04' W 093°22'0 0.0
2017-Oct-08 17:00N 30°04' W 093°22'0 0.0
2017-Oct-08 16:30N 30°04' W 093°22'0 0.0
2017-Oct-08 16:00N 30°04' W 093°22'0 0.1
2017-Oct-08 15:30N 30°04' W 093°22'0 0.0
2017-Oct-08 15:00N 30°04' W 093°22'0 0.0
2017-Oct-08 14:30N 30°04' W 093°22'0 0.0
2017-Oct-08 14:00N 30°04' W 093°22'0 0.0
2017-Oct-08 13:30N 30°04' W 093°22'0 0.0
2017-Oct-08 13:00N 30°04' W 093°22'0 0.0
2017-Oct-08 12:30N 30°04' W 093°22'0 0.0
2017-Oct-08 12:00N 30°04' W 093°22'0 0.0
2017-Oct-08 11:30N 30°04' W 093°22'0 0.0
2017-Oct-08 11:00N 30°04' W 093°22'0 0.0
2017-Oct-08 10:30N 30°04' W 093°22'0 0.0
2017-Oct-08 10:00N 30°04' W 093°22'0 0.0
2017-Oct-08 09:30N 30°04' W 093°22'0 0.0
2017-Oct-08 09:00N 30°04' W 093°22'0 0.0
2017-Oct-08 08:30N 30°04' W 093°22'0 0.0
2017-Oct-08 08:00N 30°04' W 093°22'0 0.0
2017-Oct-08 07:30N 30°04' W 093°22'0 0.0
2017-Oct-08 07:00N 30°04' W 093°22'0 0.0
2017-Oct-08 06:30N 30°04' W 093°22'0 0.0
2017-Oct-08 06:00N 30°04' W 093°22'0 0.0
2017-Oct-08 05:30N 30°04' W 093°22'0 0.0
2017-Oct-08 05:00N 30°04' W 093°22'0 0.0
2017-Oct-08 04:30N 30°04' W 093°22'0 0.0
2017-Oct-08 04:00N 30°04' W 093°22'0 0.0
2017-Oct-08 03:30N 30°04' W 093°22'0 0.0
2017-Oct-08 03:00N 30°04' W 093°22'0 0.0
2017-Oct-08 02:30N 30°04' W 093°22'0 0.0
2017-Oct-08 02:00N 30°04' W 093°22'0 0.0
2017-Oct-08 01:30N 30°04' W 093°22'0 0.0
2017-Oct-08 01:00N 30°04' W 093°22'0 0.0
2017-Oct-08 00:30N 30°04' W 093°22'0 0.0
2017-Oct-08 00:00N 30°04' W 093°22'0 0.0
2017-Oct-07 23:30N 30°04' W 093°22'0 0.0
2017-Oct-07 23:00N 30°04' W 093°22'0 0.0
2017-Oct-07 22:30N 30°04' W 093°22'0 0.0
2017-Oct-07 22:00N 30°04' W 093°22'0 0.0
2017-Oct-07 21:30N 30°04' W 093°22'0 0.0
2017-Oct-07 21:00N 30°04' W 093°22'0 0.0
2017-Oct-07 20:30N 30°04' W 093°22'0 0.0
2017-Oct-07 20:00N 30°04' W 093°22'0 0.0
2017-Oct-07 19:30N 30°04' W 093°22'0 0.0
2017-Oct-07 19:00N 30°04' W 093°22'0 0.0
2017-Oct-07 18:30N 30°04' W 093°22'0 0.0
2017-Oct-07 18:00N 30°04' W 093°22'0 0.0
2017-Oct-07 17:30N 30°04' W 093°22'0 0.0
2017-Oct-07 17:00N 30°04' W 093°22'0 0.0
2017-Oct-07 16:30N 30°04' W 093°22'0 0.0
2017-Oct-07 16:00N 30°04' W 093°22'0 0.0
2017-Oct-07 15:30N 30°04' W 093°22'0 0.0
2017-Oct-07 15:00N 30°04' W 093°22'0 0.0
2017-Oct-07 14:30N 30°04' W 093°22'0 0.0
2017-Oct-07 14:00N 30°04' W 093°22'0 0.0
2017-Oct-07 13:30N 30°04' W 093°22'0 0.0
2017-Oct-07 13:00N 30°04' W 093°22'1 1.8
2017-Oct-07 12:30N 30°04' W 093°21'1 1.9
2017-Oct-07 12:00N 30°04' W 093°22'0 0.0
2017-Oct-07 11:30N 30°04' W 093°22'0 0.0
2017-Oct-07 11:00N 30°04' W 093°22'0 0.0
2017-Oct-07 10:30N 30°04' W 093°22'0 0.0
2017-Oct-07 10:00N 30°04' W 093°22'0 0.0
2017-Oct-07 09:30N 30°04' W 093°22'0 0.0
2017-Oct-07 09:00N 30°04' W 093°22'0 0.0
2017-Oct-07 08:30N 30°04' W 093°22'0 0.0
2017-Oct-07 08:00N 30°04' W 093°22'0 0.0
2017-Oct-07 07:31N 30°04' W 093°22'0 0.0
2017-Oct-07 07:00N 30°04' W 093°22'0 0.0
2017-Oct-07 06:30N 30°04' W 093°22'0 0.0
2017-Oct-07 06:00N 30°04' W 093°22'0 0.0
2017-Oct-07 05:30N 30°04' W 093°22'0 0.0
2017-Oct-07 05:00N 30°04' W 093°22'0 0.0
2017-Oct-07 04:30N 30°04' W 093°22'0 0.0
2017-Oct-07 04:00N 30°04' W 093°22'0 0.0
2017-Oct-07 03:30N 30°04' W 093°22'0 0.0
2017-Oct-07 03:00N 30°04' W 093°22'0 0.0
2017-Oct-07 02:30N 30°04' W 093°22'0 0.0
2017-Oct-07 02:00N 30°04' W 093°22'0 0.0
2017-Oct-07 01:30N 30°04' W 093°22'0 0.0
2017-Oct-07 01:00N 30°04' W 093°22'0 0.0
2017-Oct-07 00:30N 30°04' W 093°22'0 0.0
2017-Oct-07 00:00N 30°04' W 093°22'0 0.0
2017-Oct-06 23:30N 30°04' W 093°22'0 0.0
2017-Oct-06 23:00N 30°04' W 093°22'0 0.0
2017-Oct-06 22:30N 30°04' W 093°22'0 0.0
2017-Oct-06 22:00N 30°04' W 093°22'0 0.0
2017-Oct-06 21:30N 30°04' W 093°22'0 0.0
2017-Oct-06 21:00N 30°04' W 093°22'0 0.0
2017-Oct-06 20:30N 30°04' W 093°22'0 0.0
2017-Oct-06 20:00N 30°04' W 093°22'0 0.0
2017-Oct-06 19:30N 30°04' W 093°22'0 0.0
2017-Oct-06 19:00N 30°04' W 093°22'0 0.0
2017-Oct-06 18:30N 30°04' W 093°22'0 0.0
2017-Oct-06 18:00N 30°04' W 093°22'0 0.0
2017-Oct-06 17:30N 30°04' W 093°22'2 3.9
2017-Oct-06 17:00N 30°04' W 093°25'2 4.6
2017-Oct-06 16:30N 30°04' W 093°27'3 6.7
2017-Oct-06 16:00N 30°04' W 093°31'3 6.8
2017-Oct-06 15:30N 30°04' W 093°35'3 6.9
2017-Oct-06 15:00N 30°03' W 093°39'6 5.0
2017-Oct-06 13:54N 30°01' W 093°45'4 7.6
2017-Oct-06 13:26N 29°59' W 093°48'3 6.9
2017-Oct-06 12:58N 29°58' W 093°51'4 8.1
2017-Oct-06 12:30N 29°54' W 093°54'4 8.2
2017-Oct-06 12:00N 29°51' W 093°57'3 6.1
2017-Oct-06 11:30N 29°49' W 093°59'50 4.6
2017-Oct-06 00:34N 29°31' W 094°53'1 7.6
2017-Oct-06 00:24N 29°32' W 094°54'3 7.8
2017-Oct-06 00:00N 29°34' W 094°56'4 7.8
2017-Oct-05 23:30N 29°38' W 094°58'4 8.1
2017-Oct-05 23:00N 29°42' W 094°60'3 6.9
2017-Oct-05 22:30N 29°44' W 095°03'3 0.3
2017-Oct-05 12:14N 29°45' W 095°06'0 0.0
2017-Oct-05 12:00N 29°45' W 095°06'0 0.0
2017-Oct-05 11:28N 29°45' W 095°06'0 0.0
2017-Oct-05 09:08N 29°45' W 095°06'0 0.0
2017-Oct-05 08:51N 29°45' W 095°06'0 0.0
2017-Oct-05 08:06N 29°45' W 095°06'0 0.0
2017-Oct-05 08:00N 29°45' W 095°06'0 0.0
2017-Oct-05 07:22N 29°45' W 095°06'0 0.0
2017-Oct-05 07:00N 29°45' W 095°06'0 0.0
2017-Oct-05 06:30N 29°45' W 095°06'0 0.0
2017-Oct-05 05:58N 29°45' W 095°06'0 0.0
2017-Oct-05 05:30N 29°45' W 095°06'0 0.0
2017-Oct-05 05:00N 29°45' W 095°06'0 0.0
2017-Oct-05 04:29N 29°45' W 095°06'0 0.0
2017-Oct-05 03:58N 29°45' W 095°06'0 0.0
2017-Oct-05 03:30N 29°45' W 095°06'0 0.0
2017-Oct-05 03:00N 29°45' W 095°06'0 0.0
2017-Oct-05 02:30N 29°45' W 095°06'0 0.0
2017-Oct-05 01:59N 29°45' W 095°06'0 0.0
2017-Oct-05 01:30N 29°45' W 095°06'0 0.0
2017-Oct-05 00:54N 29°45' W 095°06'  

Dump ship's entire track history